sensor_id;sensor_type;location;lat;lon;timestamp;temperature;humidity
13229;DHT22;6680;53.220;10.402;2023-11-21T00:00:38;9.70;99.90
13229;DHT22;6680;53.220;10.402;2023-11-21T00:03:08;9.70;99.90
13229;DHT22;6680;53.220;10.402;2023-11-21T00:05:37;9.70;99.90
13229;DHT22;6680;53.220;10.402;2023-11-21T00:08:04;9.60;99.90
13229;DHT22;6680;53.220;10.402;2023-11-21T00:10:31;9.60;99.90
13229;DHT22;6680;53.220;10.402;2023-11-21T00:12:58;9.60;99.90
13229;DHT22;6680;53.220;10.402;2023-11-21T00:15:24;9.70;99.90
13229;DHT22;6680;53.220;10.402;2023-11-21T00:17:52;9.60;99.90
13229;DHT22;6680;53.220;10.402;2023-11-21T00:20:20;9.70;99.90
13229;DHT22;6680;53.220;10.402;2023-11-21T00:22:47;9.80;99.90
13229;DHT22;6680;53.220;10.402;2023-11-21T00:25:14;9.80;99.90
13229;DHT22;6680;53.220;10.402;2023-11-21T00:27:43;9.70;99.90
13229;DHT22;6680;53.220;10.402;2023-11-21T00:30:11;9.70;99.90
13229;DHT22;6680;53.220;10.402;2023-11-21T00:32:38;9.30;99.90
13229;DHT22;6680;53.220;10.402;2023-11-21T00:35:06;9.40;99.90
13229;DHT22;6680;53.220;10.402;2023-11-21T00:37:34;9.30;99.90
13229;DHT22;6680;53.220;10.402;2023-11-21T00:40:01;9.20;99.90
13229;DHT22;6680;53.220;10.402;2023-11-21T00:42:30;9.10;99.90
13229;DHT22;6680;53.220;10.402;2023-11-21T00:44:57;9.00;99.90
13229;DHT22;6680;53.220;10.402;2023-11-21T00:47:24;8.90;99.90
13229;DHT22;6680;53.220;10.402;2023-11-21T00:49:51;8.80;99.90
13229;DHT22;6680;53.220;10.402;2023-11-21T00:52:18;8.80;99.90
13229;DHT22;6680;53.220;10.402;2023-11-21T00:54:46;8.80;99.90
13229;DHT22;6680;53.220;10.402;2023-11-21T00:57:13;8.70;99.90
13229;DHT22;6680;53.220;10.402;2023-11-21T00:59:40;8.70;99.90
13229;DHT22;6680;53.220;10.402;2023-11-21T01:02:07;8.70;99.90
13229;DHT22;6680;53.220;10.402;2023-11-21T01:04:36;8.60;99.90
13229;DHT22;6680;53.220;10.402;2023-11-21T01:07:03;8.60;99.90
13229;DHT22;6680;53.220;10.402;2023-11-21T01:09:31;8.50;99.90
13229;DHT22;6680;53.220;10.402;2023-11-21T01:11:59;8.50;99.90
13229;DHT22;6680;53.220;10.402;2023-11-21T01:14:26;8.50;99.90
13229;DHT22;6680;53.220;10.402;2023-11-21T01:16:53;8.50;99.90
13229;DHT22;6680;53.220;10.402;2023-11-21T01:19:20;8.40;99.90
13229;DHT22;6680;53.220;10.402;2023-11-21T01:21:47;8.40;99.90
13229;DHT22;6680;53.220;10.402;2023-11-21T01:24:14;8.30;99.90
13229;DHT22;6680;53.220;10.402;2023-11-21T01:26:41;8.30;99.90
13229;DHT22;6680;53.220;10.402;2023-11-21T01:29:09;8.30;99.90
13229;DHT22;6680;53.220;10.402;2023-11-21T01:31:36;8.20;99.90
13229;DHT22;6680;53.220;10.402;2023-11-21T01:34:02;8.10;99.90
13229;DHT22;6680;53.220;10.402;2023-11-21T01:36:30;8.20;99.90
13229;DHT22;6680;53.220;10.402;2023-11-21T01:38:58;8.10;99.90
13229;DHT22;6680;53.220;10.402;2023-11-21T01:41:25;8.10;99.90
13229;DHT22;6680;53.220;10.402;2023-11-21T01:43:54;8.10;99.90
13229;DHT22;6680;53.220;10.402;2023-11-21T01:46:22;8.10;99.90
13229;DHT22;6680;53.220;10.402;2023-11-21T01:48:49;7.90;99.90
13229;DHT22;6680;53.220;10.402;2023-11-21T01:51:17;7.90;99.90
13229;DHT22;6680;53.220;10.402;2023-11-21T01:53:44;7.90;99.90
13229;DHT22;6680;53.220;10.402;2023-11-21T01:56:12;7.80;99.90
13229;DHT22;6680;53.220;10.402;2023-11-21T01:58:39;7.80;99.90
13229;DHT22;6680;53.220;10.402;2023-11-21T02:01:06;7.70;99.90
13229;DHT22;6680;53.220;10.402;2023-11-21T02:03:35;7.70;99.90
13229;DHT22;6680;53.220;10.402;2023-11-21T02:06:01;8.10;99.90
13229;DHT22;6680;53.220;10.402;2023-11-21T02:08:28;7.70;99.90
13229;DHT22;6680;53.220;10.402;2023-11-21T02:10:55;7.70;99.90
13229;DHT22;6680;53.220;10.402;2023-11-21T02:13:23;7.70;99.90
13229;DHT22;6680;53.220;10.402;2023-11-21T02:15:49;7.50;99.90
13229;DHT22;6680;53.220;10.402;2023-11-21T02:18:20;7.50;99.90
13229;DHT22;6680;53.220;10.402;2023-11-21T02:20:49;7.50;99.90
13229;DHT22;6680;53.220;10.402;2023-11-21T02:23:18;7.50;99.90
13229;DHT22;6680;53.220;10.402;2023-11-21T02:25:44;7.40;99.90
13229;DHT22;6680;53.220;10.402;2023-11-21T02:28:12;7.30;99.90
13229;DHT22;6680;53.220;10.402;2023-11-21T02:30:41;7.30;99.90
13229;DHT22;6680;53.220;10.402;2023-11-21T02:33:08;7.20;99.90
13229;DHT22;6680;53.220;10.402;2023-11-21T02:35:35;7.20;99.90
13229;DHT22;6680;53.220;10.402;2023-11-21T02:38:01;7.10;99.90
13229;DHT22;6680;53.220;10.402;2023-11-21T02:40:29;7.00;99.90
13229;DHT22;6680;53.220;10.402;2023-11-21T02:42:56;7.00;99.90
13229;DHT22;6680;53.220;10.402;2023-11-21T02:45:24;7.00;99.90
13229;DHT22;6680;53.220;10.402;2023-11-21T02:47:51;7.00;99.90
13229;DHT22;6680;53.220;10.402;2023-11-21T02:50:22;7.00;99.90
13229;DHT22;6680;53.220;10.402;2023-11-21T02:52:49;6.90;99.90
13229;DHT22;6680;53.220;10.402;2023-11-21T02:55:16;6.90;99.90
13229;DHT22;6680;53.220;10.402;2023-11-21T02:57:45;6.90;99.90
13229;DHT22;6680;53.220;10.402;2023-11-21T03:00:12;6.90;99.90
13229;DHT22;6680;53.220;10.402;2023-11-21T03:02:40;6.90;99.90
13229;DHT22;6680;53.220;10.402;2023-11-21T03:05:08;6.90;99.90
13229;DHT22;6680;53.220;10.402;2023-11-21T03:07:36;6.90;99.90
13229;DHT22;6680;53.220;10.402;2023-11-21T03:10:03;6.80;99.90
13229;DHT22;6680;53.220;10.402;2023-11-21T03:12:30;6.60;99.90
13229;DHT22;6680;53.220;10.402;2023-11-21T03:14:58;6.70;99.90
13229;DHT22;6680;53.220;10.402;2023-11-21T03:17:27;6.80;99.90
13229;DHT22;6680;53.220;10.402;2023-11-21T03:19:54;6.90;99.90
13229;DHT22;6680;53.220;10.402;2023-11-21T03:22:22;6.90;99.90
13229;DHT22;6680;53.220;10.402;2023-11-21T03:24:49;6.90;99.90
13229;DHT22;6680;53.220;10.402;2023-11-21T03:27:16;6.80;99.90
13229;DHT22;6680;53.220;10.402;2023-11-21T03:29:43;6.90;99.90
13229;DHT22;6680;53.220;10.402;2023-11-21T03:32:11;7.00;99.90
13229;DHT22;6680;53.220;10.402;2023-11-21T03:34:53;6.80;99.90
13229;DHT22;6680;53.220;10.402;2023-11-21T03:37:21;6.90;99.90
13229;DHT22;6680;53.220;10.402;2023-11-21T03:39:47;6.90;99.90
13229;DHT22;6680;53.220;10.402;2023-11-21T03:42:14;6.90;99.90
13229;DHT22;6680;53.220;10.402;2023-11-21T03:44:41;6.80;99.90
13229;DHT22;6680;53.220;10.402;2023-11-21T03:47:08;6.80;99.90
13229;DHT22;6680;53.220;10.402;2023-11-21T03:49:36;6.80;99.90
13229;DHT22;6680;53.220;10.402;2023-11-21T03:52:03;6.80;99.90
13229;DHT22;6680;53.220;10.402;2023-11-21T03:54:30;6.80;99.90
13229;DHT22;6680;53.220;10.402;2023-11-21T03:56:57;6.80;99.90
13229;DHT22;6680;53.220;10.402;2023-11-21T03:59:24;6.80;99.90
13229;DHT22;6680;53.220;10.402;2023-11-21T04:01:50;6.80;99.90
13229;DHT22;6680;53.220;10.402;2023-11-21T04:04:17;6.90;99.90
13229;DHT22;6680;53.220;10.402;2023-11-21T04:06:46;6.90;99.90
13229;DHT22;6680;53.220;10.402;2023-11-21T04:09:13;6.90;99.90
13229;DHT22;6680;53.220;10.402;2023-11-21T04:11:40;6.80;99.90
13229;DHT22;6680;53.220;10.402;2023-11-21T04:14:08;6.80;99.90
13229;DHT22;6680;53.220;10.402;2023-11-21T04:16:35;6.80;99.90
13229;DHT22;6680;53.220;10.402;2023-11-21T04:19:02;6.70;99.90
13229;DHT22;6680;53.220;10.402;2023-11-21T04:21:29;6.70;99.90
13229;DHT22;6680;53.220;10.402;2023-11-21T04:23:57;6.70;99.90
13229;DHT22;6680;53.220;10.402;2023-11-21T04:26:24;6.80;99.90
13229;DHT22;6680;53.220;10.402;2023-11-21T04:28:51;6.80;99.90
13229;DHT22;6680;53.220;10.402;2023-11-21T04:31:17;6.80;99.90
13229;DHT22;6680;53.220;10.402;2023-11-21T04:33:44;6.70;99.90
13229;DHT22;6680;53.220;10.402;2023-11-21T04:36:11;6.70;99.90
13229;DHT22;6680;53.220;10.402;2023-11-21T04:38:38;6.70;99.90
13229;DHT22;6680;53.220;10.402;2023-11-21T04:41:08;6.70;99.90
13229;DHT22;6680;53.220;10.402;2023-11-21T04:43:34;6.70;99.90
13229;DHT22;6680;53.220;10.402;2023-11-21T04:46:01;6.70;99.90
13229;DHT22;6680;53.220;10.402;2023-11-21T04:48:28;6.80;99.90
13229;DHT22;6680;53.220;10.402;2023-11-21T04:50:55;6.80;99.90
13229;DHT22;6680;53.220;10.402;2023-11-21T04:53:22;6.80;99.90
13229;DHT22;6680;53.220;10.402;2023-11-21T04:55:49;6.80;99.90
13229;DHT22;6680;53.220;10.402;2023-11-21T04:58:17;6.80;99.90
13229;DHT22;6680;53.220;10.402;2023-11-21T05:00:44;6.80;99.90
13229;DHT22;6680;53.220;10.402;2023-11-21T05:03:11;6.80;99.90
13229;DHT22;6680;53.220;10.402;2023-11-21T05:05:38;6.70;99.90
13229;DHT22;6680;53.220;10.402;2023-11-21T05:08:05;6.70;99.90
13229;DHT22;6680;53.220;10.402;2023-11-21T05:10:32;6.70;99.90
13229;DHT22;6680;53.220;10.402;2023-11-21T05:12:59;6.70;99.90
13229;DHT22;6680;53.220;10.402;2023-11-21T05:15:28;6.70;99.90
13229;DHT22;6680;53.220;10.402;2023-11-21T05:17:54;6.60;99.90
13229;DHT22;6680;53.220;10.402;2023-11-21T05:20:25;6.60;99.90
13229;DHT22;6680;53.220;10.402;2023-11-21T05:22:52;6.60;99.90
13229;DHT22;6680;53.220;10.402;2023-11-21T05:25:19;6.60;99.90
13229;DHT22;6680;53.220;10.402;2023-11-21T05:27:45;6.60;99.90
13229;DHT22;6680;53.220;10.402;2023-11-21T05:30:13;6.50;99.90
13229;DHT22;6680;53.220;10.402;2023-11-21T05:32:42;6.50;99.90
13229;DHT22;6680;53.220;10.402;2023-11-21T05:35:09;6.50;99.90
13229;DHT22;6680;53.220;10.402;2023-11-21T05:37:39;6.50;99.90
13229;DHT22;6680;53.220;10.402;2023-11-21T05:40:07;6.40;99.90
13229;DHT22;6680;53.220;10.402;2023-11-21T05:42:35;6.40;99.90
13229;DHT22;6680;53.220;10.402;2023-11-21T05:45:04;6.40;99.90
13229;DHT22;6680;53.220;10.402;2023-11-21T05:47:36;6.40;99.90
13229;DHT22;6680;53.220;10.402;2023-11-21T05:50:05;6.40;99.90
13229;DHT22;6680;53.220;10.402;2023-11-21T05:52:35;6.30;99.90
13229;DHT22;6680;53.220;10.402;2023-11-21T05:55:02;6.40;99.90
13229;DHT22;6680;53.220;10.402;2023-11-21T05:57:32;6.40;99.90
13229;DHT22;6680;53.220;10.402;2023-11-21T06:00:00;6.40;99.90
13229;DHT22;6680;53.220;10.402;2023-11-21T06:02:35;6.30;99.90
13229;DHT22;6680;53.220;10.402;2023-11-21T06:05:02;6.40;99.90
13229;DHT22;6680;53.220;10.402;2023-11-21T06:07:31;6.40;99.90
13229;DHT22;6680;53.220;10.402;2023-11-21T06:09:57;6.30;99.90
13229;DHT22;6680;53.220;10.402;2023-11-21T06:12:24;6.30;99.90
13229;DHT22;6680;53.220;10.402;2023-11-21T06:14:51;6.40;99.90
13229;DHT22;6680;53.220;10.402;2023-11-21T06:17:18;6.30;99.90
13229;DHT22;6680;53.220;10.402;2023-11-21T06:19:45;8.00;99.90
13229;DHT22;6680;53.220;10.402;2023-11-21T06:24:40;6.40;99.90
13229;DHT22;6680;53.220;10.402;2023-11-21T06:27:08;6.30;99.90
13229;DHT22;6680;53.220;10.402;2023-11-21T06:29:35;6.40;99.90
13229;DHT22;6680;53.220;10.402;2023-11-21T06:32:02;6.40;99.90
13229;DHT22;6680;53.220;10.402;2023-11-21T06:34:30;6.40;99.90
13229;DHT22;6680;53.220;10.402;2023-11-21T06:36:57;6.40;99.90
13229;DHT22;6680;53.220;10.402;2023-11-21T06:39:24;6.40;99.90
13229;DHT22;6680;53.220;10.402;2023-11-21T06:41:52;6.40;99.90
13229;DHT22;6680;53.220;10.402;2023-11-21T06:44:19;6.40;99.90
13229;DHT22;6680;53.220;10.402;2023-11-21T06:46:46;6.40;99.90
13229;DHT22;6680;53.220;10.402;2023-11-21T06:49:14;6.40;99.90
13229;DHT22;6680;53.220;10.402;2023-11-21T06:51:41;6.40;99.90
13229;DHT22;6680;53.220;10.402;2023-11-21T06:54:08;6.40;99.90
13229;DHT22;6680;53.220;10.402;2023-11-21T06:56:35;6.40;99.90
13229;DHT22;6680;53.220;10.402;2023-11-21T06:59:03;6.40;99.90
13229;DHT22;6680;53.220;10.402;2023-11-21T07:01:31;6.40;99.90
13229;DHT22;6680;53.220;10.402;2023-11-21T07:04:04;6.40;99.90
13229;DHT22;6680;53.220;10.402;2023-11-21T07:06:31;6.30;99.90
13229;DHT22;6680;53.220;10.402;2023-11-21T07:08:58;6.30;99.90
13229;DHT22;6680;53.220;10.402;2023-11-21T07:11:26;6.40;99.90
13229;DHT22;6680;53.220;10.402;2023-11-21T07:13:53;6.30;99.90
13229;DHT22;6680;53.220;10.402;2023-11-21T07:16:21;6.40;99.90
13229;DHT22;6680;53.220;10.402;2023-11-21T07:18:49;6.40;99.90
13229;DHT22;6680;53.220;10.402;2023-11-21T07:21:16;6.50;99.90
13229;DHT22;6680;53.220;10.402;2023-11-21T07:23:43;6.50;99.90
13229;DHT22;6680;53.220;10.402;2023-11-21T07:26:10;6.50;99.90
13229;DHT22;6680;53.220;10.402;2023-11-21T07:28:36;6.50;99.90
13229;DHT22;6680;53.220;10.402;2023-11-21T07:31:04;6.50;99.90
13229;DHT22;6680;53.220;10.402;2023-11-21T07:33:32;6.50;99.90
13229;DHT22;6680;53.220;10.402;2023-11-21T07:35:59;6.50;99.90
13229;DHT22;6680;53.220;10.402;2023-11-21T07:38:26;6.40;99.90
13229;DHT22;6680;53.220;10.402;2023-11-21T07:40:53;6.50;99.90
13229;DHT22;6680;53.220;10.402;2023-11-21T07:43:20;6.50;99.90
13229;DHT22;6680;53.220;10.402;2023-11-21T07:45:47;6.60;99.90
13229;DHT22;6680;53.220;10.402;2023-11-21T07:48:14;6.60;99.90
13229;DHT22;6680;53.220;10.402;2023-11-21T07:50:42;6.60;99.90
13229;DHT22;6680;53.220;10.402;2023-11-21T07:53:09;6.70;99.90
13229;DHT22;6680;53.220;10.402;2023-11-21T07:55:36;6.70;99.90
13229;DHT22;6680;53.220;10.402;2023-11-21T07:58:03;6.70;99.90
13229;DHT22;6680;53.220;10.402;2023-11-21T08:00:30;6.70;99.90
13229;DHT22;6680;53.220;10.402;2023-11-21T08:02:57;6.70;99.90
13229;DHT22;6680;53.220;10.402;2023-11-21T08:05:23;6.70;99.90
13229;DHT22;6680;53.220;10.402;2023-11-21T08:07:52;6.70;99.90
13229;DHT22;6680;53.220;10.402;2023-11-21T08:10:18;6.60;99.90
13229;DHT22;6680;53.220;10.402;2023-11-21T08:12:46;7.50;99.90
13229;DHT22;6680;53.220;10.402;2023-11-21T08:15:14;6.60;99.90
13229;DHT22;6680;53.220;10.402;2023-11-21T08:17:41;6.60;99.90
13229;DHT22;6680;53.220;10.402;2023-11-21T08:20:08;6.60;99.90
13229;DHT22;6680;53.220;10.402;2023-11-21T08:22:36;6.50;99.90
13229;DHT22;6680;53.220;10.402;2023-11-21T08:25:08;6.60;99.90
13229;DHT22;6680;53.220;10.402;2023-11-21T08:27:35;6.60;99.90
13229;DHT22;6680;53.220;10.402;2023-11-21T08:30:02;5.90;99.90
13229;DHT22;6680;53.220;10.402;2023-11-21T08:32:29;6.50;99.90
13229;DHT22;6680;53.220;10.402;2023-11-21T08:34:57;6.60;99.90
13229;DHT22;6680;53.220;10.402;2023-11-21T08:37:24;6.70;99.90
13229;DHT22;6680;53.220;10.402;2023-11-21T08:39:53;6.70;99.90
13229;DHT22;6680;53.220;10.402;2023-11-21T08:42:21;6.80;99.90
13229;DHT22;6680;53.220;10.402;2023-11-21T08:44:48;6.80;99.90
13229;DHT22;6680;53.220;10.402;2023-11-21T08:47:15;6.80;99.90
13229;DHT22;6680;53.220;10.402;2023-11-21T08:49:42;6.80;99.90
13229;DHT22;6680;53.220;10.402;2023-11-21T08:52:09;6.80;99.90
13229;DHT22;6680;53.220;10.402;2023-11-21T08:54:36;6.80;99.90
13229;DHT22;6680;53.220;10.402;2023-11-21T08:57:04;6.80;99.90
13229;DHT22;6680;53.220;10.402;2023-11-21T08:59:32;6.80;99.90
13229;DHT22;6680;53.220;10.402;2023-11-21T09:01:59;6.80;99.90
13229;DHT22;6680;53.220;10.402;2023-11-21T09:04:26;6.90;99.90
13229;DHT22;6680;53.220;10.402;2023-11-21T09:06:53;6.80;99.90
13229;DHT22;6680;53.220;10.402;2023-11-21T09:09:19;6.90;99.90
13229;DHT22;6680;53.220;10.402;2023-11-21T09:11:46;7.00;99.90
13229;DHT22;6680;53.220;10.402;2023-11-21T09:14:14;6.90;99.90
13229;DHT22;6680;53.220;10.402;2023-11-21T09:16:43;6.90;99.90
13229;DHT22;6680;53.220;10.402;2023-11-21T09:19:11;7.00;99.90
13229;DHT22;6680;53.220;10.402;2023-11-21T09:21:39;7.00;99.90
13229;DHT22;6680;53.220;10.402;2023-11-21T09:24:07;7.00;99.90
13229;DHT22;6680;53.220;10.402;2023-11-21T09:26:35;6.70;99.90
13229;DHT22;6680;53.220;10.402;2023-11-21T09:29:02;7.20;99.90
13229;DHT22;6680;53.220;10.402;2023-11-21T09:31:28;7.10;99.90
13229;DHT22;6680;53.220;10.402;2023-11-21T09:33:58;6.80;99.90
13229;DHT22;6680;53.220;10.402;2023-11-21T09:36:24;7.20;99.90
13229;DHT22;6680;53.220;10.402;2023-11-21T09:38:53;7.30;99.90
13229;DHT22;6680;53.220;10.402;2023-11-21T09:41:40;7.30;99.90
13229;DHT22;6680;53.220;10.402;2023-11-21T09:44:13;7.30;99.90
13229;DHT22;6680;53.220;10.402;2023-11-21T09:46:42;7.20;99.90
13229;DHT22;6680;53.220;10.402;2023-11-21T09:49:10;7.20;99.90
13229;DHT22;6680;53.220;10.402;2023-11-21T09:51:39;7.20;99.90
13229;DHT22;6680;53.220;10.402;2023-11-21T09:54:10;7.20;99.90
13229;DHT22;6680;53.220;10.402;2023-11-21T09:56:37;7.20;99.90
13229;DHT22;6680;53.220;10.402;2023-11-21T09:59:05;7.30;99.90
13229;DHT22;6680;53.220;10.402;2023-11-21T10:01:36;5.90;99.90
13229;DHT22;6680;53.220;10.402;2023-11-21T10:04:05;7.40;99.90
13229;DHT22;6680;53.220;10.402;2023-11-21T10:06:39;7.40;99.90
13229;DHT22;6680;53.220;10.402;2023-11-21T10:09:08;7.40;99.90
13229;DHT22;6680;53.220;10.402;2023-11-21T10:11:40;7.60;99.90
13229;DHT22;6680;53.220;10.402;2023-11-21T10:14:08;7.40;99.90
13229;DHT22;6680;53.220;10.402;2023-11-21T10:16:38;7.40;99.90
13229;DHT22;6680;53.220;10.402;2023-11-21T10:19:06;7.50;99.90
13229;DHT22;6680;53.220;10.402;2023-11-21T10:21:34;7.50;99.90
13229;DHT22;6680;53.220;10.402;2023-11-21T10:24:03;9.00;99.90
13229;DHT22;6680;53.220;10.402;2023-11-21T10:26:32;7.50;99.90
13229;DHT22;6680;53.220;10.402;2023-11-21T10:29:01;7.40;99.90
13229;DHT22;6680;53.220;10.402;2023-11-21T10:31:29;7.40;99.90
13229;DHT22;6680;53.220;10.402;2023-11-21T10:34:10;7.40;99.90
13229;DHT22;6680;53.220;10.402;2023-11-21T10:36:37;6.80;99.90
13229;DHT22;6680;53.220;10.402;2023-11-21T10:39:05;7.40;99.90
13229;DHT22;6680;53.220;10.402;2023-11-21T10:41:32;7.60;99.90
13229;DHT22;6680;53.220;10.402;2023-11-21T10:44:00;9.40;99.90
13229;DHT22;6680;53.220;10.402;2023-11-21T10:46:30;7.50;99.90
13229;DHT22;6680;53.220;10.402;2023-11-21T10:48:57;7.50;99.90
13229;DHT22;6680;53.220;10.402;2023-11-21T10:51:24;7.60;99.90
13229;DHT22;6680;53.220;10.402;2023-11-21T10:53:52;7.60;99.90
13229;DHT22;6680;53.220;10.402;2023-11-21T10:56:23;7.70;99.90
13229;DHT22;6680;53.220;10.402;2023-11-21T10:58:50;7.70;99.90
13229;DHT22;6680;53.220;10.402;2023-11-21T11:01:19;7.80;99.90
13229;DHT22;6680;53.220;10.402;2023-11-21T11:03:47;7.70;99.90
13229;DHT22;6680;53.220;10.402;2023-11-21T11:06:14;7.70;99.90
13229;DHT22;6680;53.220;10.402;2023-11-21T11:08:41;7.70;99.90
13229;DHT22;6680;53.220;10.402;2023-11-21T11:11:09;7.70;99.90
13229;DHT22;6680;53.220;10.402;2023-11-21T11:13:43;7.70;99.90
13229;DHT22;6680;53.220;10.402;2023-11-21T11:16:11;7.60;99.90
13229;DHT22;6680;53.220;10.402;2023-11-21T11:18:42;7.60;99.90
13229;DHT22;6680;53.220;10.402;2023-11-21T11:21:17;7.70;99.90
13229;DHT22;6680;53.220;10.402;2023-11-21T11:24:00;7.70;99.90
13229;DHT22;6680;53.220;10.402;2023-11-21T11:26:42;7.70;99.90
13229;DHT22;6680;53.220;10.402;2023-11-21T11:29:18;7.70;99.90
13229;DHT22;6680;53.220;10.402;2023-11-21T11:31:58;7.70;99.90
13229;DHT22;6680;53.220;10.402;2023-11-21T11:34:30;7.80;99.90
13229;DHT22;6680;53.220;10.402;2023-11-21T11:37:01;7.80;99.90
13229;DHT22;6680;53.220;10.402;2023-11-21T11:39:36;7.80;99.90
13229;DHT22;6680;53.220;10.402;2023-11-21T11:42:07;7.80;99.90
13229;DHT22;6680;53.220;10.402;2023-11-21T11:44:49;7.80;99.90
13229;DHT22;6680;53.220;10.402;2023-11-21T11:47:24;7.80;99.90
13229;DHT22;6680;53.220;10.402;2023-11-21T11:50:03;7.90;99.90
13229;DHT22;6680;53.220;10.402;2023-11-21T11:52:38;7.90;99.90
13229;DHT22;6680;53.220;10.402;2023-11-21T11:55:06;7.80;99.90
13229;DHT22;6680;53.220;10.402;2023-11-21T11:57:35;7.70;99.90
13229;DHT22;6680;53.220;10.402;2023-11-21T12:00:13;7.60;99.90
13229;DHT22;6680;53.220;10.402;2023-11-21T12:02:45;7.60;99.90
13229;DHT22;6680;53.220;10.402;2023-11-21T12:05:14;7.50;99.90
13229;DHT22;6680;53.220;10.402;2023-11-21T12:07:45;7.50;99.90
13229;DHT22;6680;53.220;10.402;2023-11-21T12:10:14;7.60;99.90
13229;DHT22;6680;53.220;10.402;2023-11-21T12:12:47;7.60;99.90
13229;DHT22;6680;53.220;10.402;2023-11-21T12:15:16;7.60;99.90
13229;DHT22;6680;53.220;10.402;2023-11-21T12:17:46;7.50;99.90
13229;DHT22;6680;53.220;10.402;2023-11-21T12:20:13;7.50;99.90
13229;DHT22;6680;53.220;10.402;2023-11-21T12:22:44;7.60;99.90
13229;DHT22;6680;53.220;10.402;2023-11-21T12:25:14;7.50;99.90
13229;DHT22;6680;53.220;10.402;2023-11-21T12:27:44;7.40;99.90
13229;DHT22;6680;53.220;10.402;2023-11-21T12:30:13;7.30;99.90
13229;DHT22;6680;53.220;10.402;2023-11-21T12:32:43;7.40;99.90
13229;DHT22;6680;53.220;10.402;2023-11-21T12:35:12;7.40;99.90
13229;DHT22;6680;53.220;10.402;2023-11-21T12:37:40;7.40;99.90
13229;DHT22;6680;53.220;10.402;2023-11-21T12:40:09;7.40;99.90
13229;DHT22;6680;53.220;10.402;2023-11-21T12:42:39;7.20;99.90
13229;DHT22;6680;53.220;10.402;2023-11-21T12:45:10;7.40;99.90
13229;DHT22;6680;53.220;10.402;2023-11-21T12:47:43;7.40;99.90
13229;DHT22;6680;53.220;10.402;2023-11-21T12:50:10;7.40;99.90
13229;DHT22;6680;53.220;10.402;2023-11-21T12:52:44;7.60;99.90
13229;DHT22;6680;53.220;10.402;2023-11-21T12:55:15;7.40;99.90
13229;DHT22;6680;53.220;10.402;2023-11-21T12:57:43;7.40;99.90
13229;DHT22;6680;53.220;10.402;2023-11-21T13:00:11;7.40;99.90
13229;DHT22;6680;53.220;10.402;2023-11-21T13:02:54;7.40;99.90
13229;DHT22;6680;53.220;10.402;2023-11-21T13:05:32;7.40;99.90
13229;DHT22;6680;53.220;10.402;2023-11-21T13:08:01;7.30;99.90
13229;DHT22;6680;53.220;10.402;2023-11-21T13:10:31;7.40;99.90
13229;DHT22;6680;53.220;10.402;2023-11-21T13:13:00;7.40;99.90
13229;DHT22;6680;53.220;10.402;2023-11-21T13:15:31;7.40;99.90
13229;DHT22;6680;53.220;10.402;2023-11-21T13:17:59;7.30;99.90
13229;DHT22;6680;53.220;10.402;2023-11-21T13:20:26;7.20;99.90
13229;DHT22;6680;53.220;10.402;2023-11-21T13:22:54;7.20;99.90
13229;DHT22;6680;53.220;10.402;2023-11-21T13:25:23;7.20;99.90
13229;DHT22;6680;53.220;10.402;2023-11-21T13:27:52;7.10;99.90
13229;DHT22;6680;53.220;10.402;2023-11-21T13:30:20;7.20;99.90
13229;DHT22;6680;53.220;10.402;2023-11-21T13:32:52;7.10;99.90
13229;DHT22;6680;53.220;10.402;2023-11-21T13:35:20;7.10;99.90
13229;DHT22;6680;53.220;10.402;2023-11-21T13:37:50;7.10;99.90
13229;DHT22;6680;53.220;10.402;2023-11-21T13:40:22;7.10;99.90
13229;DHT22;6680;53.220;10.402;2023-11-21T13:42:53;7.10;99.90
13229;DHT22;6680;53.220;10.402;2023-11-21T13:45:21;7.10;99.90
13229;DHT22;6680;53.220;10.402;2023-11-21T13:47:49;7.10;99.90
13229;DHT22;6680;53.220;10.402;2023-11-21T13:50:19;7.10;99.90
13229;DHT22;6680;53.220;10.402;2023-11-21T13:52:50;7.10;99.90
13229;DHT22;6680;53.220;10.402;2023-11-21T13:55:18;7.10;99.90
13229;DHT22;6680;53.220;10.402;2023-11-21T13:57:47;7.00;99.90
13229;DHT22;6680;53.220;10.402;2023-11-21T14:00:17;7.10;99.90
13229;DHT22;6680;53.220;10.402;2023-11-21T14:03:13;7.20;99.90
13229;DHT22;6680;53.220;10.402;2023-11-21T14:05:48;7.10;99.90
13229;DHT22;6680;53.220;10.402;2023-11-21T14:08:18;7.10;99.90
13229;DHT22;6680;53.220;10.402;2023-11-21T14:10:46;7.10;99.90
13229;DHT22;6680;53.220;10.402;2023-11-21T14:13:18;7.00;99.90
13229;DHT22;6680;53.220;10.402;2023-11-21T14:15:49;7.10;99.90
13229;DHT22;6680;53.220;10.402;2023-11-21T14:18:18;7.00;99.90
13229;DHT22;6680;53.220;10.402;2023-11-21T14:20:54;7.10;99.90
13229;DHT22;6680;53.220;10.402;2023-11-21T14:23:21;7.00;99.90
13229;DHT22;6680;53.220;10.402;2023-11-21T14:25:49;7.00;99.90
13229;DHT22;6680;53.220;10.402;2023-11-21T14:28:16;7.00;99.90
13229;DHT22;6680;53.220;10.402;2023-11-21T14:30:44;7.00;99.90
13229;DHT22;6680;53.220;10.402;2023-11-21T14:33:12;6.90;99.90
13229;DHT22;6680;53.220;10.402;2023-11-21T14:35:39;6.90;99.90
13229;DHT22;6680;53.220;10.402;2023-11-21T14:38:07;6.90;99.90
13229;DHT22;6680;53.220;10.402;2023-11-21T14:40:35;7.10;99.90
13229;DHT22;6680;53.220;10.402;2023-11-21T14:43:03;7.10;99.90
13229;DHT22;6680;53.220;10.402;2023-11-21T14:45:30;7.00;99.90
13229;DHT22;6680;53.220;10.402;2023-11-21T14:47:57;7.00;99.90
13229;DHT22;6680;53.220;10.402;2023-11-21T14:50:35;7.00;99.90
13229;DHT22;6680;53.220;10.402;2023-11-21T14:53:15;6.90;99.90
13229;DHT22;6680;53.220;10.402;2023-11-21T14:55:41;6.90;99.90
13229;DHT22;6680;53.220;10.402;2023-11-21T14:58:22;6.90;99.90
13229;DHT22;6680;53.220;10.402;2023-11-21T15:00:53;6.80;99.90
13229;DHT22;6680;53.220;10.402;2023-11-21T15:03:24;6.80;99.90
13229;DHT22;6680;53.220;10.402;2023-11-21T15:06:09;6.80;99.90
13229;DHT22;6680;53.220;10.402;2023-11-21T15:08:50;6.80;99.90
13229;DHT22;6680;53.220;10.402;2023-11-21T15:11:24;6.80;99.90
13229;DHT22;6680;53.220;10.402;2023-11-21T15:13:56;6.90;99.90
13229;DHT22;6680;53.220;10.402;2023-11-21T15:16:23;6.90;99.90
13229;DHT22;6680;53.220;10.402;2023-11-21T15:18:51;6.50;99.90
13229;DHT22;6680;53.220;10.402;2023-11-21T15:21:18;6.80;99.90
13229;DHT22;6680;53.220;10.402;2023-11-21T15:23:48;6.70;99.90
13229;DHT22;6680;53.220;10.402;2023-11-21T15:26:16;6.80;99.90
13229;DHT22;6680;53.220;10.402;2023-11-21T15:28:43;6.80;99.90
13229;DHT22;6680;53.220;10.402;2023-11-21T15:31:10;6.70;99.90
13229;DHT22;6680;53.220;10.402;2023-11-21T15:33:36;6.70;99.90
13229;DHT22;6680;53.220;10.402;2023-11-21T15:36:05;6.70;99.90
13229;DHT22;6680;53.220;10.402;2023-11-21T15:38:35;6.70;99.90
13229;DHT22;6680;53.220;10.402;2023-11-21T15:41:04;6.70;99.90
13229;DHT22;6680;53.220;10.402;2023-11-21T15:43:35;6.70;99.90
13229;DHT22;6680;53.220;10.402;2023-11-21T15:46:02;6.70;99.90
13229;DHT22;6680;53.220;10.402;2023-11-21T15:48:33;6.70;99.90
13229;DHT22;6680;53.220;10.402;2023-11-21T15:53:28;6.70;99.90
13229;DHT22;6680;53.220;10.402;2023-11-21T15:55:55;6.70;99.90
13229;DHT22;6680;53.220;10.402;2023-11-21T15:58:23;6.70;99.90